createdAt,value
2023-04-27T00:02:28.031Z,4.20
2023-04-27T00:05:37.301Z,4.80
2023-04-27T00:08:43.749Z,4.70
2023-04-27T00:11:50.012Z,4.80
2023-04-27T00:14:56.318Z,4.40
2023-04-27T00:18:02.949Z,4.60
2023-04-27T00:21:10.141Z,4.50
2023-04-27T00:24:16.315Z,4.80
2023-04-27T00:27:22.410Z,4.40
2023-04-27T00:30:28.541Z,4.80
2023-04-27T00:33:34.884Z,4.60
2023-04-27T00:36:41.379Z,5.00
2023-04-27T00:39:47.880Z,4.80
2023-04-27T00:42:53.917Z,4.90
2023-04-27T00:46:00.871Z,4.70
2023-04-27T00:49:07.466Z,4.70
2023-04-27T00:52:14.024Z,4.50
2023-04-27T00:55:20.256Z,4.40
2023-04-27T00:58:26.775Z,4.60
2023-04-27T01:01:33.524Z,4.30
2023-04-27T01:04:40.355Z,4.50
2023-04-27T01:07:46.591Z,4.50
2023-04-27T01:10:53.889Z,5.00
2023-04-27T01:14:04.779Z,4.20
2023-04-27T01:17:12.229Z,4.50
2023-04-27T01:20:20.542Z,4.30
2023-04-27T01:23:26.777Z,4.40
2023-04-27T01:26:33.036Z,4.70
2023-04-27T01:29:39.416Z,4.40
2023-04-27T01:32:45.985Z,4.70
2023-04-27T01:35:52.668Z,4.70
2023-04-27T01:38:58.817Z,5.00
2023-04-27T01:42:05.169Z,4.60
2023-04-27T01:45:14.700Z,4.80
2023-04-27T01:48:21.191Z,5.00
2023-04-27T01:51:27.782Z,4.50
2023-04-27T01:54:34.199Z,4.50
2023-04-27T01:57:40.320Z,4.50
2023-04-27T02:00:46.631Z,4.40
2023-04-27T02:03:53.020Z,4.50
2023-04-27T02:06:59.474Z,4.80
2023-04-27T02:10:06.372Z,4.30
2023-04-27T02:13:12.825Z,4.60
2023-04-27T02:16:19.160Z,4.90
2023-04-27T02:19:25.290Z,4.80
2023-04-27T02:22:31.660Z,4.80
2023-04-27T02:25:39.276Z,4.80
2023-04-27T02:28:45.738Z,4.70
2023-04-27T02:31:52.322Z,4.70
2023-04-27T02:34:58.369Z,4.90
2023-04-27T02:38:04.649Z,4.80
2023-04-27T02:41:11.374Z,4.80
2023-04-27T02:44:17.596Z,4.90
2023-04-27T02:47:23.671Z,4.90
2023-04-27T02:50:30.034Z,5.20
2023-04-27T02:53:36.438Z,5.10
2023-04-27T02:56:42.596Z,4.90
2023-04-27T02:59:48.819Z,5.00
2023-04-27T03:02:55.456Z,5.20
2023-04-27T03:06:01.757Z,5.00
2023-04-27T03:09:10.412Z,5.20
2023-04-27T03:12:16.518Z,5.20
2023-04-27T03:15:23.203Z,5.10
2023-04-27T03:18:29.531Z,5.00
2023-04-27T03:21:36.236Z,5.20
2023-04-27T03:24:43.173Z,5.10
2023-04-27T03:27:49.176Z,4.70
2023-04-27T03:30:55.488Z,5.00
2023-04-27T03:34:01.733Z,5.40
2023-04-27T03:37:07.863Z,5.70
2023-04-27T03:40:15.786Z,6.00
2023-04-27T03:43:22.792Z,5.50
2023-04-27T03:46:29.189Z,5.80
2023-04-27T03:49:36.849Z,5.80
2023-04-27T03:52:43.321Z,4.80
2023-04-27T03:55:49.596Z,5.30
2023-04-27T03:58:55.925Z,5.30
2023-04-27T04:02:03.929Z,5.00
2023-04-27T04:05:11.529Z,5.10
2023-04-27T04:08:17.825Z,5.40
2023-04-27T04:11:23.984Z,5.60
2023-04-27T04:14:30.359Z,6.10
2023-04-27T04:17:37.091Z,5.50
2023-04-27T04:20:43.334Z,5.30
2023-04-27T04:23:50.141Z,5.20
2023-04-27T04:26:56.223Z,5.00
2023-04-27T04:30:06.556Z,5.20
2023-04-27T04:33:13.797Z,5.80
2023-04-27T04:36:19.962Z,5.20
2023-04-27T04:39:27.158Z,5.20
2023-04-27T04:42:33.609Z,5.60
2023-04-27T04:45:39.709Z,5.50
2023-04-27T04:51:47.422Z,6.00
2023-04-27T04:54:55.953Z,5.80
2023-04-27T04:58:02.140Z,5.50
2023-04-27T05:01:08.604Z,5.40
2023-04-27T05:04:15.386Z,5.30
2023-04-27T05:07:24.655Z,5.80
2023-04-27T05:10:32.374Z,5.70
2023-04-27T05:13:40.404Z,5.50
2023-04-27T05:16:49.178Z,5.30
2023-04-27T05:19:55.346Z,5.00
2023-04-27T05:23:01.604Z,5.20
2023-04-27T05:26:16.228Z,5.80
2023-04-27T05:29:22.922Z,5.50
2023-04-27T05:32:28.952Z,5.30
2023-04-27T05:35:36.035Z,5.70
2023-04-27T05:38:43.016Z,5.20
2023-04-27T05:41:49.319Z,5.40
2023-04-27T05:44:55.645Z,5.20
2023-04-27T05:48:02.521Z,4.40
2023-04-27T05:51:08.861Z,4.90
2023-04-27T05:54:15.749Z,5.70
2023-04-27T05:57:22.724Z,5.20
2023-04-27T06:00:29.674Z,5.10
2023-04-27T06:03:35.960Z,5.30
2023-04-27T06:06:42.562Z,4.90
2023-04-27T06:09:48.656Z,4.80
2023-04-27T06:12:55.650Z,5.20
2023-04-27T06:16:01.935Z,4.50
2023-04-27T06:19:08.752Z,4.60
2023-04-27T06:22:15.587Z,4.60
2023-04-27T06:25:24.411Z,4.90
2023-04-27T06:28:32.151Z,4.30
2023-04-27T06:31:38.940Z,4.20
2023-04-27T06:34:45.103Z,4.60
2023-04-27T06:37:51.616Z,4.50
2023-04-27T06:40:58.054Z,4.50
2023-04-27T06:44:04.672Z,5.20
2023-04-27T06:47:11.608Z,4.90
2023-04-27T06:50:18.654Z,3.60
2023-04-27T06:53:25.066Z,3.70
2023-04-27T06:56:31.513Z,4.30
2023-04-27T06:59:38.434Z,3.90
2023-04-27T07:02:44.694Z,3.60
2023-04-27T07:05:51.783Z,3.90
2023-04-27T07:08:57.894Z,3.90
2023-04-27T07:12:04.114Z,3.00
2023-04-27T07:15:12.494Z,3.10
2023-04-27T07:18:18.854Z,3.00
2023-04-27T07:21:25.255Z,2.90
2023-04-27T07:24:31.440Z,3.20
2023-04-27T07:27:38.516Z,2.50
2023-04-27T07:30:45.177Z,2.90
2023-04-27T07:33:51.545Z,2.40
2023-04-27T07:36:57.748Z,3.00
2023-04-27T07:40:11.350Z,2.90
2023-04-27T07:43:18.365Z,3.20
2023-04-27T07:46:24.836Z,3.10
2023-04-27T07:49:30.943Z,3.10
2023-04-27T07:52:37.394Z,3.10
2023-04-27T07:55:44.560Z,2.90
2023-04-27T07:58:51.164Z,3.20
2023-04-27T08:02:17.025Z,3.20
2023-04-27T08:05:24.581Z,3.10
2023-04-27T08:08:31.959Z,3.30
2023-04-27T08:11:38.176Z,3.10
2023-04-27T08:14:44.311Z,3.50
2023-04-27T08:17:50.971Z,2.70
2023-04-27T08:20:57.229Z,3.00
2023-04-27T08:24:04.337Z,2.70
2023-04-27T08:27:10.926Z,2.90
2023-04-27T08:30:19.504Z,3.20
2023-04-27T08:33:25.718Z,2.40
2023-04-27T08:36:32.787Z,2.70
2023-04-27T08:39:40.735Z,2.50
2023-04-27T08:42:58.547Z,2.90
2023-04-27T08:46:05.163Z,2.80
2023-04-27T08:49:14.335Z,2.60
2023-04-27T08:52:23.095Z,2.60
2023-04-27T08:55:31.089Z,2.70
2023-04-27T08:58:40.815Z,2.60
2023-04-27T09:01:49.884Z,2.80
2023-04-27T09:04:56.678Z,2.80
2023-04-27T09:08:08.413Z,3.20
2023-04-27T09:11:15.079Z,2.80
2023-04-27T09:14:23.110Z,2.60
2023-04-27T09:17:30.455Z,2.80
2023-04-27T09:20:44.550Z,2.70
2023-04-27T09:23:51.441Z,2.70
2023-04-27T09:27:00.181Z,2.90
2023-04-27T09:30:16.381Z,2.90
2023-04-27T09:33:27.495Z,2.90
2023-04-27T09:36:34.254Z,2.70
2023-04-27T09:39:41.660Z,2.70
2023-04-27T09:42:49.561Z,3.30
2023-04-27T09:45:57.389Z,3.00
2023-04-27T09:49:05.672Z,2.80
2023-04-27T09:52:13.452Z,2.90
2023-04-27T09:55:25.028Z,3.20
2023-04-27T09:58:44.908Z,2.90
2023-04-27T10:01:56.109Z,2.60
2023-04-27T10:05:28.914Z,2.80
2023-04-27T10:08:36.606Z,3.00
2023-04-27T10:11:45.369Z,2.70
2023-04-27T10:14:56.543Z,2.60
2023-04-27T10:18:07.715Z,2.80
2023-04-27T10:21:14.671Z,2.90
2023-04-27T10:24:21.268Z,3.40
2023-04-27T10:27:39.822Z,3.00
2023-04-27T10:34:06.410Z,2.90
2023-04-27T10:37:14.889Z,2.70
2023-04-27T10:40:21.817Z,2.60
2023-04-27T10:43:30.092Z,2.70
2023-04-27T10:46:38.391Z,2.80
2023-04-27T10:49:45.179Z,2.80
2023-04-27T10:52:51.544Z,2.90
2023-04-27T10:55:59.299Z,2.80
2023-04-27T10:59:12.121Z,3.10
2023-04-27T11:02:19.309Z,2.70
2023-04-27T11:05:30.780Z,3.00
2023-04-27T11:08:46.557Z,3.20
2023-04-27T11:11:53.718Z,2.90
2023-04-27T11:15:01.830Z,3.90
2023-04-27T11:18:11.085Z,2.60
2023-04-27T11:21:20.615Z,2.50
2023-04-27T11:24:26.824Z,2.50
2023-04-27T11:27:41.313Z,2.80
2023-04-27T11:30:47.912Z,2.60
2023-04-27T11:33:56.041Z,2.60
2023-04-27T11:37:17.420Z,2.70
2023-04-27T11:40:25.304Z,3.00
2023-04-27T11:43:31.967Z,2.70
2023-04-27T11:46:42.036Z,2.70
2023-04-27T11:49:51.967Z,4.00
2023-04-27T11:56:05.717Z,2.50
2023-04-27T11:59:23.109Z,2.40
2023-04-27T12:02:31.540Z,2.60
2023-04-27T12:05:48.944Z,2.70
2023-04-27T12:08:55.349Z,2.80
2023-04-27T12:12:02.838Z,2.80
2023-04-27T12:15:12.435Z,3.20
2023-04-27T12:18:18.896Z,2.70
2023-04-27T12:21:25.154Z,2.40
2023-04-27T12:24:31.537Z,2.60
2023-04-27T12:27:38.324Z,2.80
2023-04-27T12:30:45.243Z,2.60
2023-04-27T12:33:52.172Z,2.50
2023-04-27T12:36:58.435Z,2.50
2023-04-27T12:40:06.548Z,2.50
2023-04-27T12:43:14.143Z,2.70
2023-04-27T12:46:20.405Z,2.60
2023-04-27T12:49:26.867Z,2.90
2023-04-27T12:52:34.462Z,2.60
2023-04-27T12:55:40.770Z,2.40
2023-04-27T12:58:46.901Z,2.80
2023-04-27T13:01:54.000Z,2.50
2023-04-27T13:05:00.675Z,2.20
2023-04-27T13:08:07.645Z,2.60
2023-04-27T13:11:14.390Z,2.40
2023-04-27T13:14:21.273Z,2.60
2023-04-27T13:17:28.061Z,2.70
2023-04-27T13:20:34.459Z,2.40
2023-04-27T13:23:41.318Z,2.30
2023-04-27T13:26:47.816Z,2.40
2023-04-27T13:29:53.987Z,2.50
2023-04-27T13:33:14.245Z,2.70
2023-04-27T13:36:25.208Z,2.60
2023-04-27T13:39:33.034Z,2.40
2023-04-27T13:42:40.235Z,2.60
2023-04-27T13:45:46.796Z,2.40
2023-04-27T13:48:53.067Z,2.40
2023-04-27T13:51:59.936Z,2.50
2023-04-27T13:55:07.043Z,2.50
2023-04-27T13:58:14.080Z,2.50
2023-04-27T14:01:20.536Z,2.50
2023-04-27T14:04:27.045Z,2.60
2023-04-27T14:07:35.829Z,2.60
2023-04-27T14:10:42.664Z,2.60
2023-04-27T14:13:49.215Z,2.60
2023-04-27T14:16:57.125Z,2.70
2023-04-27T14:20:04.647Z,2.60
2023-04-27T14:23:12.110Z,2.70
2023-04-27T14:26:18.932Z,2.60
2023-04-27T14:29:26.099Z,2.60
2023-04-27T14:32:32.532Z,2.50
2023-04-27T14:35:38.797Z,2.40
2023-04-27T14:38:45.429Z,2.60
2023-04-27T14:41:51.597Z,2.30
2023-04-27T14:44:57.768Z,2.70
2023-04-27T14:48:04.491Z,2.60
2023-04-27T14:51:11.333Z,2.60
2023-04-27T14:54:17.475Z,2.60
2023-04-27T14:57:23.742Z,2.90
2023-04-27T15:00:32.047Z,2.60
2023-04-27T15:03:38.918Z,2.60
2023-04-27T15:06:45.244Z,2.50
2023-04-27T15:09:52.850Z,2.70
2023-04-27T15:13:00.505Z,2.50
2023-04-27T15:16:08.059Z,2.50
2023-04-27T15:19:16.400Z,2.60
2023-04-27T15:22:23.818Z,2.60
2023-04-27T15:25:30.235Z,2.70
2023-04-27T15:28:37.452Z,3.00
2023-04-27T15:31:44.503Z,2.90
2023-04-27T15:34:52.030Z,2.70
2023-04-27T15:37:58.636Z,2.80
2023-04-27T15:41:05.009Z,2.70
2023-04-27T15:44:11.508Z,3.00
2023-04-27T15:47:18.145Z,2.80
2023-04-27T15:50:26.294Z,2.80
2023-04-27T15:53:32.697Z,2.70
2023-04-27T15:56:39.268Z,3.00
2023-04-27T15:59:48.241Z,2.50
2023-04-27T16:02:54.838Z,2.60
2023-04-27T16:06:01.463Z,2.60
2023-04-27T16:09:10.668Z,2.90
2023-04-27T16:12:17.236Z,2.70
2023-04-27T16:15:23.525Z,2.40
2023-04-27T16:18:29.844Z,2.90
2023-04-27T16:21:36.207Z,2.90
2023-04-27T16:24:43.035Z,2.60
2023-04-27T16:27:49.820Z,2.60
2023-04-27T16:30:56.617Z,2.50
2023-04-27T16:34:04.064Z,2.80
2023-04-27T16:37:11.581Z,2.50
2023-04-27T16:40:20.150Z,2.80
2023-04-27T16:43:26.529Z,2.70
2023-04-27T16:46:32.678Z,2.70
2023-04-27T16:49:38.888Z,2.50
2023-04-27T16:52:45.785Z,2.60
2023-04-27T16:55:52.896Z,2.70
2023-04-27T16:59:10.653Z,2.60
2023-04-27T17:02:24.523Z,2.70
2023-04-27T17:05:32.611Z,2.90
2023-04-27T17:08:39.585Z,3.30
2023-04-27T17:11:47.362Z,3.00
2023-04-27T17:14:57.193Z,2.70
2023-04-27T17:21:11.618Z,2.50
2023-04-27T17:24:19.472Z,2.90
2023-04-27T17:27:27.716Z,3.00
2023-04-27T17:57:52.634Z,2.70
2023-04-27T18:38:13.006Z,2.80
2023-04-27T18:41:19.711Z,2.80
2023-04-27T18:44:26.155Z,2.80
2023-04-27T18:47:32.279Z,3.20
2023-04-27T18:50:38.647Z,3.00
2023-04-27T18:53:44.990Z,3.10
2023-04-27T18:56:53.671Z,2.90
2023-04-27T19:00:00.471Z,2.70
2023-04-27T19:03:07.713Z,2.80
2023-04-27T19:06:14.787Z,3.10
2023-04-27T19:09:21.520Z,3.20
2023-04-27T19:12:27.696Z,3.50
2023-04-27T19:15:34.260Z,3.60
2023-04-27T19:18:40.895Z,3.60
2023-04-27T19:21:48.037Z,3.70
2023-04-27T19:24:54.089Z,3.80
2023-04-27T19:28:00.746Z,4.50
2023-04-27T19:31:07.160Z,4.50
2023-04-27T19:34:14.001Z,4.80
2023-04-27T19:37:20.595Z,4.00
2023-04-27T19:40:26.897Z,4.90
2023-04-27T19:43:33.157Z,5.70
2023-04-27T19:46:39.800Z,4.60
2023-04-27T19:49:46.530Z,4.40
2023-04-27T19:52:52.784Z,3.90
2023-04-27T19:56:00.769Z,3.90
2023-04-27T19:59:07.947Z,3.70
2023-04-27T20:02:14.355Z,3.90
2023-04-27T20:05:21.525Z,3.60
2023-04-27T20:08:27.780Z,3.60
2023-04-27T20:11:34.021Z,3.40
2023-04-27T20:14:42.655Z,3.60
2023-04-27T20:17:49.235Z,3.50
2023-04-27T20:20:55.439Z,3.90
2023-04-27T20:24:02.014Z,3.40
2023-04-27T20:27:08.419Z,3.40
2023-04-27T20:30:16.337Z,3.30
2023-04-27T20:33:22.629Z,3.50
2023-04-27T20:36:28.992Z,3.30
2023-04-27T20:39:35.320Z,3.50
2023-04-27T20:42:42.676Z,3.60
2023-04-27T20:45:49.108Z,3.40
2023-04-27T20:48:55.443Z,3.40
2023-04-27T20:52:01.661Z,3.40
2023-04-27T20:55:09.288Z,3.20
2023-04-27T20:58:15.744Z,3.50
2023-04-27T21:01:22.321Z,3.50
2023-04-27T21:04:28.797Z,3.30
2023-04-27T21:07:36.457Z,3.40
2023-04-27T21:10:42.715Z,3.30
2023-04-27T21:13:49.343Z,3.90
2023-04-27T21:16:56.061Z,3.50
2023-04-27T21:20:02.416Z,3.80
2023-04-27T21:23:08.505Z,3.80
2023-04-27T21:26:14.756Z,3.50
2023-04-27T21:29:21.092Z,3.80
2023-04-27T21:32:27.494Z,3.80
2023-04-27T21:35:35.041Z,4.30
2023-04-27T21:38:41.461Z,4.20
2023-04-27T21:41:47.573Z,4.50
2023-04-27T21:44:54.561Z,4.20
2023-04-27T21:48:00.968Z,4.20
2023-04-27T21:51:07.555Z,4.20
2023-04-27T21:54:14.526Z,3.90
2023-04-27T21:57:21.445Z,3.50
2023-04-27T22:00:27.793Z,3.50
2023-04-27T22:03:34.190Z,3.30
2023-04-27T22:06:41.104Z,3.30
2023-04-27T22:09:47.592Z,3.70
2023-04-27T22:12:53.740Z,3.30
2023-04-27T22:16:00.354Z,3.70
2023-04-27T22:19:06.981Z,3.40
2023-04-27T22:22:14.372Z,3.40
2023-04-27T22:25:20.481Z,3.60
2023-04-27T22:28:26.956Z,3.50
2023-04-27T22:31:33.497Z,3.60
2023-04-27T22:34:39.978Z,3.70
2023-04-27T22:37:47.744Z,3.50
2023-04-27T22:40:54.135Z,3.50
2023-04-27T22:44:00.278Z,3.80
2023-04-27T22:47:07.008Z,3.90
2023-04-27T22:50:14.408Z,3.70
2023-04-27T22:53:21.278Z,3.70
2023-04-27T22:56:27.568Z,3.40
2023-04-27T22:59:34.297Z,3.80
2023-04-27T23:02:40.717Z,3.90
2023-04-27T23:05:47.841Z,3.80
2023-04-27T23:08:53.832Z,3.70
2023-04-27T23:12:01.286Z,3.40
2023-04-27T23:15:08.513Z,3.90
2023-04-27T23:18:15.112Z,3.80
2023-04-27T23:21:21.268Z,3.80
2023-04-27T23:24:27.626Z,3.50
2023-04-27T23:27:33.750Z,3.70
2023-04-27T23:30:40.111Z,4.20
2023-04-27T23:33:46.332Z,3.90
2023-04-27T23:36:52.565Z,3.80
2023-04-27T23:39:58.635Z,3.80
2023-04-27T23:43:05.083Z,3.90
2023-04-27T23:46:11.294Z,3.80
2023-04-27T23:49:17.574Z,3.70
2023-04-27T23:52:23.637Z,3.90
2023-04-27T23:55:30.448Z,3.70
2023-04-27T23:58:36.448Z,3.90
